PWSweather.com
Personal Weather Stations
Station Observations
KPASPRIN10
East Vincent, East Vincent, PA 19475

East VincentEast Vincent, PA 19475

Lat: 40.170948, Lon: -75.629681

Elevation: 404

Station Type: Davis VP2

http://www.evweather.com

Latest ConditionsUpdated 5:40:03 PM EDT Sunday, May 27, 2018
Currently Today's Max Today's Min Today's Average
Temperature 64.0°F17.8°C 74.8°F23.8°C 64.0°F17.8°C 69.4°F20.8°C
Dew Point 62.8°F17.1°C 71.0°F21.7°C 62.8°F17.1°C 67.6°F19.8°C
Winds 4.6 mph E7.4 kmh E 9.2 mph E14.8 kmh E - 3.0 mph 4.8 kmh
Wind Gusts 8.1 mph13.0 kmh 12.7 mph20.4 kmh - -
Humidity 96% 97% 86% 94%
Pressure 29.96 in1014.6 mb 29.96 in1014.6 mb 29.82 in1009.8 mb -
Precipitation - 0.92 in23.4 mm - -
Hour Temp Dew Point Humidity Winds Wind Gusts Pressure Precip Precip Rate Daily Precip Total
05:40 PM 64.0°F17.8°C 62.8°F17.1°C 96% 4.6 mph E7.4 kmh E 8.1 mph13.0 kmh 29.96 in1014.6 mb - 0.00 in0.0 mm 0.92 in23.4 mm
05:30 PM 64.2°F17.9°C 63.0°F17.2°C 96% 4.6 mph E7.4 kmh E 9.2 mph14.8 kmh 29.96 in1014.6 mb - 0.00 in0.0 mm 0.92 in23.4 mm
05:20 PM 64.3°F17.9°C 63.1°F17.3°C 96% 2.3 mph ESE3.7 kmh ESE 3.5 mph5.6 kmh 29.96 in1014.6 mb - 0.00 in0.0 mm 0.92 in23.4 mm
05:10 PM 64.2°F17.9°C 63.0°F17.2°C 96% 2.3 mph ESE3.7 kmh ESE 6.9 mph11.1 kmh 29.96 in1014.6 mb - 0.00 in0.0 mm 0.92 in23.4 mm
05:00 PM 64.4°F18.0°C 62.9°F17.2°C 95% 2.3 mph E3.7 kmh E 3.5 mph5.6 kmh 29.95 in1014.2 mb - 0.00 in0.0 mm 0.92 in23.4 mm
04:50 PM 64.9°F18.3°C 63.4°F17.4°C 95% 4.6 mph SE7.4 kmh SE 8.1 mph13.0 kmh 29.95 in1014.2 mb - 0.00 in0.0 mm 0.92 in23.4 mm
04:40 PM 65.0°F18.3°C 63.3°F17.4°C 94% 3.5 mph E5.6 kmh E 5.8 mph9.3 kmh 29.95 in1014.2 mb - 0.00 in0.0 mm 0.92 in23.4 mm
04:30 PM 65.4°F18.6°C 63.3°F17.4°C 93% 4.6 mph E7.4 kmh E 9.2 mph14.8 kmh 29.95 in1014.2 mb - 0.00 in0.0 mm 0.92 in23.4 mm
04:20 PM 65.7°F18.7°C 63.6°F17.6°C 93% 4.6 mph ENE7.4 kmh ENE 5.8 mph9.3 kmh 29.95 in1014.2 mb - 0.00 in0.0 mm 0.92 in23.4 mm
04:10 PM 66.1°F18.9°C 64.0°F17.8°C 93% 5.8 mph E9.3 kmh E 6.9 mph11.1 kmh 29.95 in1014.2 mb - 0.00 in0.0 mm 0.92 in23.4 mm
04:00 PM 66.3°F19.1°C 63.9°F17.7°C 92% 6.9 mph E11.1 kmh E 6.9 mph11.1 kmh 29.95 in1014.2 mb - 0.00 in0.0 mm 0.92 in23.4 mm
03:50 PM 66.6°F19.2°C 64.2°F17.9°C 92% 5.8 mph E9.3 kmh E 11.5 mph18.5 kmh 29.95 in1014.2 mb - 0.00 in0.0 mm 0.92 in23.4 mm
03:40 PM 67.0°F19.4°C 64.6°F18.1°C 92% 5.8 mph NE9.3 kmh NE 6.9 mph11.1 kmh 29.94 in1013.9 mb - 0.00 in0.0 mm 0.92 in23.4 mm
03:30 PM 67.3°F19.6°C 64.9°F18.3°C 92% 6.9 mph ESE11.1 kmh ESE 11.5 mph18.5 kmh 29.94 in1013.9 mb - 0.00 in0.0 mm 0.92 in23.4 mm
03:20 PM 66.8°F19.3°C 64.4°F18.0°C 92% 5.8 mph E9.3 kmh E 9.2 mph14.8 kmh 29.94 in1013.9 mb - 0.00 in0.0 mm 0.92 in23.4 mm
03:10 PM 66.6°F19.2°C 64.2°F17.9°C 92% 4.6 mph E7.4 kmh E 10.4 mph16.7 kmh 29.94 in1013.9 mb - 0.00 in0.0 mm 0.92 in23.4 mm
03:00 PM 67.0°F19.4°C 64.9°F18.3°C 93% 4.6 mph E7.4 kmh E 8.1 mph13.0 kmh 29.95 in1014.2 mb - 0.00 in0.0 mm 0.92 in23.4 mm
02:50 PM 67.1°F19.5°C 64.7°F18.2°C 92% 4.6 mph E7.4 kmh E 5.8 mph9.3 kmh 29.95 in1014.2 mb - 0.00 in0.0 mm 0.92 in23.4 mm
02:40 PM 67.3°F19.6°C 65.2°F18.4°C 93% 3.5 mph ENE5.6 kmh ENE 3.5 mph5.6 kmh 29.95 in1014.2 mb - 0.00 in0.0 mm 0.92 in23.4 mm
02:30 PM 67.4°F19.7°C 65.0°F18.3°C 92% 8.1 mph E13.0 kmh E 10.4 mph16.7 kmh 29.95 in1014.2 mb - 0.00 in0.0 mm 0.92 in23.4 mm
02:20 PM 67.5°F19.7°C 65.1°F18.4°C 92% 8.1 mph E13.0 kmh E 10.4 mph16.7 kmh 29.94 in1013.9 mb - 0.00 in0.0 mm 0.92 in23.4 mm
02:10 PM 67.7°F19.8°C 65.3°F18.5°C 92% 4.6 mph E7.4 kmh E 8.1 mph13.0 kmh 29.94 in1013.9 mb - 0.00 in0.0 mm 0.92 in23.4 mm
02:00 PM 67.8°F19.9°C 65.4°F18.6°C 92% 4.6 mph E7.4 kmh E 11.5 mph18.5 kmh 29.94 in1013.9 mb - 0.00 in0.0 mm 0.92 in23.4 mm
01:50 PM 67.5°F19.7°C 65.1°F18.4°C 92% 5.8 mph E9.3 kmh E 6.9 mph11.1 kmh 29.95 in1014.2 mb - 0.00 in0.0 mm 0.92 in23.4 mm
01:40 PM 67.6°F19.8°C 65.5°F18.6°C 93% 2.3 mph E3.7 kmh E 3.5 mph5.6 kmh 29.95 in1014.2 mb - 0.00 in0.0 mm 0.92 in23.4 mm
01:30 PM 67.1°F19.5°C 65.0°F18.3°C 93% 2.3 mph E3.7 kmh E 4.6 mph7.4 kmh 29.95 in1014.2 mb - 0.00 in0.0 mm 0.92 in23.4 mm
01:20 PM 67.1°F19.5°C 64.7°F18.2°C 92% 4.6 mph E7.4 kmh E 5.8 mph9.3 kmh 29.96 in1014.6 mb - 0.00 in0.0 mm 0.92 in23.4 mm
01:10 PM 67.3°F19.6°C 65.2°F18.4°C 93% 4.6 mph ENE7.4 kmh ENE 8.1 mph13.0 kmh 29.95 in1014.2 mb - 0.00 in0.0 mm 0.92 in23.4 mm
01:00 PM 67.4°F19.7°C 65.0°F18.3°C 92% 4.6 mph ESE7.4 kmh ESE 5.8 mph9.3 kmh 29.95 in1014.2 mb - 0.00 in0.0 mm 0.92 in23.4 mm
12:50 PM 67.6°F19.8°C 65.5°F18.6°C 93% 8.1 mph E13.0 kmh E 11.5 mph18.5 kmh 29.95 in1014.2 mb - 0.00 in0.0 mm 0.92 in23.4 mm
12:40 PM 67.5°F19.7°C 65.1°F18.4°C 92% 6.9 mph E11.1 kmh E 9.2 mph14.8 kmh 29.95 in1014.2 mb - 0.00 in0.0 mm 0.92 in23.4 mm
12:30 PM 67.4°F19.7°C 65.3°F18.5°C 93% 4.6 mph E7.4 kmh E 9.2 mph14.8 kmh 29.95 in1014.2 mb - 0.00 in0.0 mm 0.92 in23.4 mm
12:20 PM 67.5°F19.7°C 65.0°F18.3°C 92% 9.2 mph E14.8 kmh E 11.5 mph18.5 kmh 29.95 in1014.2 mb - 0.00 in0.0 mm 0.92 in23.4 mm
12:10 PM 67.6°F19.8°C 64.9°F18.3°C 91% 5.8 mph E9.3 kmh E 9.2 mph14.8 kmh 29.94 in1013.9 mb - 0.00 in0.0 mm 0.92 in23.4 mm
12:00 PM 69.7°F20.9°C 66.0°F18.9°C 88% 5.8 mph E9.3 kmh E 8.1 mph13.0 kmh 29.95 in1014.2 mb - 0.00 in0.0 mm 0.92 in23.4 mm
11:50 AM 70.6°F21.4°C 67.5°F19.7°C 90% 3.5 mph E5.6 kmh E 4.6 mph7.4 kmh 29.95 in1014.2 mb - 0.00 in0.0 mm 0.92 in23.4 mm
11:40 AM 68.4°F20.2°C 65.6°F18.7°C 91% 4.6 mph NE7.4 kmh NE 6.9 mph11.1 kmh 29.95 in1014.2 mb - 0.00 in0.0 mm 0.92 in23.4 mm
11:30 AM 68.4°F20.2°C 66.0°F18.9°C 92% 6.9 mph ENE11.1 kmh ENE 10.4 mph16.7 kmh 29.94 in1013.9 mb - 0.00 in0.0 mm 0.92 in23.4 mm
11:20 AM 67.6°F19.8°C 65.8°F18.8°C 94% 5.8 mph ENE9.3 kmh ENE 8.1 mph13.0 kmh 29.94 in1013.9 mb - 0.00 in0.0 mm 0.92 in23.4 mm
11:10 AM 67.3°F19.6°C 65.5°F18.6°C 94% 5.8 mph E9.3 kmh E 8.1 mph13.0 kmh 29.94 in1013.9 mb - 0.00 in0.0 mm 0.92 in23.4 mm
11:00 AM 67.9°F19.9°C 66.1°F18.9°C 94% 6.9 mph NE11.1 kmh NE 8.1 mph13.0 kmh 29.94 in1013.9 mb - 0.00 in0.0 mm 0.92 in23.4 mm
10:50 AM 68.1°F20.1°C 66.6°F19.2°C 95% 4.6 mph E7.4 kmh E 9.2 mph14.8 kmh 29.93 in1013.5 mb - 0.00 in0.0 mm 0.92 in23.4 mm
10:40 AM 68.0°F20.0°C 66.5°F19.2°C 95% 3.5 mph ENE5.6 kmh ENE 11.5 mph18.5 kmh 29.93 in1013.5 mb - 0.00 in0.0 mm 0.92 in23.4 mm
10:30 AM 66.2°F19.0°C 65.4°F18.6°C 97% 6.9 mph E11.1 kmh E 9.2 mph14.8 kmh 29.93 in1013.5 mb - 0.00 in0.0 mm 0.92 in23.4 mm
10:20 AM 66.1°F18.9°C 65.2°F18.4°C 97% 4.6 mph E7.4 kmh E 9.2 mph14.8 kmh 29.93 in1013.5 mb - 0.00 in0.0 mm 0.92 in23.4 mm
10:10 AM 66.0°F18.9°C 65.1°F18.4°C 97% 3.5 mph ENE5.6 kmh ENE 8.1 mph13.0 kmh 29.94 in1013.9 mb - 0.01 in0.3 mm 0.92 in23.4 mm
10:00 AM 66.1°F18.9°C 65.2°F18.4°C 97% 3.5 mph E5.6 kmh E 4.6 mph7.4 kmh 29.93 in1013.5 mb - 0.01 in0.3 mm 0.92 in23.4 mm
09:50 AM 66.1°F18.9°C 65.2°F18.4°C 97% 2.3 mph E3.7 kmh E 5.8 mph9.3 kmh 29.93 in1013.5 mb - 0.02 in0.5 mm 0.92 in23.4 mm
09:40 AM 66.1°F18.9°C 65.2°F18.4°C 97% 4.6 mph NE7.4 kmh NE 10.4 mph16.7 kmh 29.93 in1013.5 mb - 0.09 in2.3 mm 0.92 in23.4 mm
09:30 AM 66.4°F19.1°C 65.5°F18.6°C 97% 3.5 mph E5.6 kmh E 6.9 mph11.1 kmh 29.93 in1013.5 mb - 0.15 in3.8 mm 0.92 in23.4 mm
09:20 AM 66.4°F19.1°C 65.5°F18.6°C 97% 3.5 mph ENE5.6 kmh ENE 3.5 mph5.6 kmh 29.93 in1013.5 mb - 0.22 in5.6 mm 0.92 in23.4 mm
09:10 AM 66.5°F19.2°C 65.6°F18.7°C 97% 3.5 mph E5.6 kmh E 5.8 mph9.3 kmh 29.92 in1013.2 mb - 0.38 in9.7 mm 0.91 in23.1 mm
09:00 AM 66.7°F19.3°C 65.8°F18.8°C 97% 6.9 mph ENE11.1 kmh ENE 10.4 mph16.7 kmh 29.92 in1013.2 mb - 0.45 in11.4 mm 0.91 in23.1 mm
08:50 AM 66.5°F19.2°C 65.6°F18.7°C 97% 3.5 mph E5.6 kmh E 8.1 mph13.0 kmh 29.91 in1012.9 mb - 0.73 in18.5 mm 0.90 in22.9 mm
08:40 AM 67.0°F19.4°C 65.8°F18.8°C 96% 8.1 mph NE13.0 kmh NE 12.7 mph20.4 kmh 29.91 in1012.9 mb - 0.79 in20.1 mm 0.84 in21.3 mm
08:30 AM 68.0°F20.0°C 66.8°F19.3°C 96% 6.9 mph E11.1 kmh E 11.5 mph18.5 kmh 29.91 in1012.9 mb - 0.73 in18.5 mm 0.77 in19.6 mm
08:20 AM 68.6°F20.3°C 67.4°F19.7°C 96% 8.1 mph ENE13.0 kmh ENE 12.7 mph20.4 kmh 29.89 in1012.2 mb - 0.67 in17.0 mm 0.71 in18.0 mm
08:10 AM 69.2°F20.7°C 68.0°F20.0°C 96% 5.8 mph NE9.3 kmh NE 6.9 mph11.1 kmh 29.89 in1012.2 mb - 0.49 in12.4 mm 0.53 in13.5 mm
08:00 AM 69.6°F20.9°C 68.4°F20.2°C 96% 3.5 mph E5.6 kmh E 3.5 mph5.6 kmh 29.88 in1011.9 mb - 0.46 in11.7 mm 0.47 in11.9 mm
07:50 AM 70.3°F21.3°C 68.8°F20.4°C 95% 4.6 mph E7.4 kmh E 6.9 mph11.1 kmh 29.88 in1011.9 mb - 0.19 in4.8 mm 0.20 in5.1 mm
07:40 AM 71.9°F22.2°C 70.7°F21.5°C 96% 4.6 mph ENE7.4 kmh ENE 5.8 mph9.3 kmh 29.87 in1011.5 mb - 0.04 in1.0 mm 0.05 in1.3 mm
07:30 AM 72.0°F22.2°C 70.8°F21.6°C 96% Calm Calm -- 29.86 in1011.2 mb - 0.03 in0.8 mm 0.04 in1.0 mm
07:20 AM 72.1°F22.3°C 70.9°F21.6°C 96% Calm Calm 1.2 mph1.9 kmh 29.86 in1011.2 mb - 0.03 in0.8 mm 0.04 in1.0 mm
07:10 AM 72.2°F22.3°C 71.0°F21.7°C 96% 1.2 mph S1.9 kmh S 2.3 mph3.7 kmh 29.86 in1011.2 mb - 0.03 in0.8 mm 0.04 in1.0 mm
07:00 AM 72.2°F22.3°C 71.0°F21.7°C 96% Calm Calm -- 29.86 in1011.2 mb - 0.00 in0.0 mm 0.01 in0.3 mm
06:50 AM 72.2°F22.3°C 71.0°F21.7°C 96% Calm Calm -- 29.86 in1011.2 mb - 0.00 in0.0 mm 0.01 in0.3 mm
06:40 AM 72.2°F22.3°C 71.0°F21.7°C 96% Calm Calm -- 29.86 in1011.2 mb - 0.00 in0.0 mm 0.01 in0.3 mm
06:30 AM 72.1°F22.3°C 70.9°F21.6°C 96% Calm Calm -- 29.85 in1010.8 mb - 0.00 in0.0 mm 0.01 in0.3 mm
06:20 AM 72.1°F22.3°C 70.9°F21.6°C 96% Calm Calm -- 29.84 in1010.5 mb - 0.00 in0.0 mm 0.01 in0.3 mm
06:10 AM 72.1°F22.3°C 70.9°F21.6°C 96% 1.2 mph W1.9 kmh W 2.3 mph3.7 kmh 29.84 in1010.5 mb - 0.00 in0.0 mm 0.01 in0.3 mm
06:00 AM 72.0°F22.2°C 70.8°F21.6°C 96% 1.2 mph W1.9 kmh W 1.2 mph1.9 kmh 29.83 in1010.2 mb - 0.00 in0.0 mm 0.01 in0.3 mm
05:50 AM 72.0°F22.2°C 70.8°F21.6°C 96% Calm Calm -- 29.83 in1010.2 mb - 0.00 in0.0 mm 0.01 in0.3 mm
05:40 AM 72.1°F22.3°C 70.9°F21.6°C 96% 1.2 mph W1.9 kmh W 1.2 mph1.9 kmh 29.83 in1010.2 mb - 0.00 in0.0 mm 0.01 in0.3 mm
05:30 AM 72.2°F22.3°C 71.0°F21.7°C 96% Calm Calm 1.2 mph1.9 kmh 29.83 in1010.2 mb - 0.00 in0.0 mm 0.01 in0.3 mm
05:20 AM 72.2°F22.3°C 71.0°F21.7°C 96% 1.2 mph W1.9 kmh W 2.3 mph3.7 kmh 29.83 in1010.2 mb - 0.00 in0.0 mm 0.01 in0.3 mm
05:10 AM 72.2°F22.3°C 71.0°F21.7°C 96% 2.3 mph WSW3.7 kmh WSW 3.5 mph5.6 kmh 29.82 in1009.8 mb - 0.00 in0.0 mm 0.01 in0.3 mm
05:00 AM 72.1°F22.3°C 70.9°F21.6°C 96% 4.6 mph W7.4 kmh W 5.8 mph9.3 kmh 29.82 in1009.8 mb - 0.00 in0.0 mm 0.01 in0.3 mm
04:50 AM 72.1°F22.3°C 70.9°F21.6°C 96% 1.2 mph SW1.9 kmh SW 3.5 mph5.6 kmh 29.82 in1009.8 mb - 0.00 in0.0 mm 0.01 in0.3 mm
04:40 AM 72.0°F22.2°C 70.8°F21.6°C 96% Calm Calm -- 29.82 in1009.8 mb - 0.00 in0.0 mm 0.01 in0.3 mm
04:30 AM 72.0°F22.2°C 70.8°F21.6°C 96% 1.2 mph SW1.9 kmh SW 1.2 mph1.9 kmh 29.82 in1009.8 mb - 0.00 in0.0 mm 0.01 in0.3 mm
04:20 AM 71.9°F22.2°C 70.7°F21.5°C 96% Calm Calm -- 29.82 in1009.8 mb - 0.00 in0.0 mm 0.01 in0.3 mm
04:10 AM 71.7°F22.1°C 70.5°F21.4°C 96% Calm Calm -- 29.82 in1009.8 mb - 0.00 in0.0 mm 0.01 in0.3 mm
04:00 AM 71.7°F22.1°C 70.5°F21.4°C 96% Calm Calm -- 29.82 in1009.8 mb - 0.00 in0.0 mm 0.01 in0.3 mm
03:50 AM 71.7°F22.1°C 70.5°F21.4°C 96% Calm Calm -- 29.82 in1009.8 mb - 0.00 in0.0 mm 0.01 in0.3 mm
03:40 AM 71.7°F22.1°C 70.2°F21.2°C 95% Calm Calm -- 29.82 in1009.8 mb - 0.00 in0.0 mm 0.01 in0.3 mm
03:30 AM 71.8°F22.1°C 70.3°F21.3°C 95% Calm Calm -- 29.83 in1010.2 mb - 0.00 in0.0 mm 0.01 in0.3 mm
03:20 AM 71.7°F22.1°C 70.2°F21.2°C 95% Calm Calm -- 29.83 in1010.2 mb - 0.00 in0.0 mm 0.01 in0.3 mm
03:10 AM 71.8°F22.1°C 70.0°F21.1°C 94% Calm Calm -- 29.82 in1009.8 mb - 0.00 in0.0 mm 0.01 in0.3 mm
03:00 AM 71.9°F22.2°C 70.1°F21.2°C 94% Calm Calm -- 29.82 in1009.8 mb - 0.00 in0.0 mm 0.01 in0.3 mm
02:50 AM 72.0°F22.2°C 70.2°F21.2°C 94% Calm Calm -- 29.82 in1009.8 mb - 0.00 in0.0 mm 0.01 in0.3 mm
02:40 AM 72.1°F22.3°C 70.3°F21.3°C 94% Calm Calm -- 29.82 in1009.8 mb - 0.00 in0.0 mm 0.01 in0.3 mm
02:30 AM 72.2°F22.3°C 70.4°F21.3°C 94% Calm Calm -- 29.82 in1009.8 mb - 0.00 in0.0 mm 0.01 in0.3 mm
02:20 AM 72.4°F22.4°C 70.5°F21.4°C 94% Calm Calm -- 29.82 in1009.8 mb - 0.00 in0.0 mm 0.01 in0.3 mm
02:10 AM 72.5°F22.5°C 70.4°F21.3°C 93% Calm Calm -- 29.82 in1009.8 mb - 0.00 in0.0 mm 0.01 in0.3 mm
02:00 AM 72.7°F22.6°C 70.6°F21.4°C 93% Calm Calm -- 29.83 in1010.2 mb - 0.01 in0.3 mm 0.01 in0.3 mm
01:50 AM 73.0°F22.8°C 70.9°F21.6°C 93% Calm Calm -- 29.83 in1010.2 mb - 0.01 in0.3 mm 0.01 in0.3 mm
01:40 AM 73.2°F22.9°C 70.8°F21.6°C 92% Calm Calm -- 29.83 in1010.2 mb - 0.01 in0.3 mm 0.01 in0.3 mm
01:30 AM 73.5°F23.1°C 71.0°F21.7°C 92% Calm Calm -- 29.84 in1010.5 mb - 0.01 in0.3 mm 0.01 in0.3 mm
01:20 AM 73.7°F23.2°C 70.9°F21.6°C 91% Calm Calm -- 29.84 in1010.5 mb - 0.01 in0.3 mm 0.01 in0.3 mm
01:10 AM 73.9°F23.3°C 70.8°F21.6°C 90% Calm Calm -- 29.84 in1010.5 mb - 0.01 in0.3 mm 0.01 in0.3 mm
01:00 AM 74.1°F23.4°C 71.0°F21.7°C 90% 1.2 mph SW1.9 kmh SW 2.3 mph3.7 kmh 29.84 in1010.5 mb - 0.00 in0.0 mm 0.00 in0.0 mm
12:50 AM 74.3°F23.5°C 70.8°F21.6°C 89% Calm Calm -- 29.84 in1010.5 mb - 0.00 in0.0 mm 0.00 in0.0 mm
12:40 AM 74.2°F23.4°C 70.4°F21.3°C 88% Calm Calm -- 29.84 in1010.5 mb - 0.00 in0.0 mm 0.00 in0.0 mm
12:30 AM 74.2°F23.4°C 70.1°F21.2°C 87% Calm Calm -- 29.84 in1010.5 mb - 0.00 in0.0 mm 0.00 in0.0 mm
12:20 AM 74.4°F23.6°C 70.3°F21.3°C 87% Calm Calm -- 29.84 in1010.5 mb - 0.00 in0.0 mm 0.00 in0.0 mm
12:10 AM 74.6°F23.7°C 70.1°F21.2°C 86% Calm Calm -- 29.84 in1010.5 mb - 0.00 in0.0 mm 0.00 in0.0 mm
12:00 AM 74.8°F23.8°C 70.4°F21.3°C 86% 1.2 mph SW1.9 kmh SW 2.3 mph3.7 kmh 29.84 in1010.5 mb - 0.00 in0.0 mm 0.00 in0.0 mm